Aviation Digital Data Service (ADDS)

Output produced by METARs form (1727 UTC 16 September 2014)
found at http://www.aviationweather.gov/adds/metars/
 
KESN 161650Z 34009G16KT 10SM FEW030 25/14 A3003